createdAt,value
2018-11-22T00:00:09.512Z,37.5
2018-11-22T00:00:59.792Z,37.4
2018-11-22T00:01:50.042Z,37.4
2018-11-22T00:02:39.546Z,37.4
2018-11-22T00:03:30.627Z,37.4
2018-11-22T00:04:20.914Z,37.4
2018-11-22T00:05:10.104Z,37.4
2018-11-22T00:06:01.002Z,37.4
2018-11-22T00:06:49.731Z,37.4
2018-11-22T00:25:05.414Z,37.1
2018-11-22T00:25:55.177Z,37.1
2018-11-22T00:26:44.918Z,37.1
2018-11-22T00:27:35.496Z,37.1
2018-11-22T00:28:24.510Z,37.1
2018-11-22T00:29:14.404Z,37.1
2018-11-22T00:30:05.445Z,37.1
2018-11-22T00:30:55.220Z,37.1
2018-11-22T00:31:45.225Z,37.1
2018-11-22T00:32:34.442Z,37.1
2018-11-22T00:33:25.570Z,37.1
2018-11-22T00:34:15.317Z,37
2018-11-22T00:35:05.440Z,37.1
2018-11-22T00:35:55.568Z,37
2018-11-22T00:36:45.172Z,37
2018-11-22T00:37:35.242Z,37
2018-11-22T00:38:25.637Z,37
2018-11-22T00:39:15.477Z,36.9
2018-11-22T00:40:06.290Z,36.9
2018-11-22T00:40:56.082Z,36.9
2018-11-22T00:41:45.559Z,36.9
2018-11-22T00:42:36.259Z,36.9
2018-11-22T00:43:25.484Z,36.9
2018-11-22T00:44:15.324Z,36.9
2018-11-22T00:45:06.164Z,36.9
2018-11-22T00:45:56.694Z,36.9
2018-11-22T00:46:46.476Z,36.9
2018-11-22T00:47:35.796Z,36.9
2018-11-22T00:48:25.619Z,36.9
2018-11-22T00:49:16.537Z,36.8
2018-11-22T00:50:05.939Z,36.8
2018-11-22T00:50:56.751Z,36.8
2018-11-22T00:51:46.953Z,36.8
2018-11-22T00:52:36.121Z,36.8
2018-11-22T00:53:26.198Z,36.8
2018-11-22T00:54:16.983Z,36.8
2018-11-22T00:55:06.590Z,36.8
2018-11-22T00:55:57.163Z,36.8
2018-11-22T00:56:46.915Z,36.8
2018-11-22T00:57:37.523Z,36.8
2018-11-22T00:58:26.993Z,36.7
2018-11-22T00:59:16.123Z,36.7
2018-11-22T01:00:06.341Z,36.7
2018-11-22T01:00:57.961Z,36.7
2018-11-22T01:01:47.620Z,36.7
2018-11-22T01:02:36.618Z,36.7
2018-11-22T01:03:27.177Z,36.6
2018-11-22T01:04:17.273Z,36.6
2018-11-22T01:05:06.968Z,36.6
2018-11-22T01:05:58.645Z,36.6
2018-11-22T01:06:47.383Z,36.6
2018-11-22T01:07:37.673Z,36.6
2018-11-22T01:08:28.019Z,36.6
2018-11-22T01:09:17.752Z,36.6
2018-11-22T01:10:07.630Z,36.6
2018-11-22T01:10:58.565Z,36.6
2018-11-22T01:11:47.932Z,36.6
2018-11-22T01:12:38.330Z,36.5
2018-11-22T01:13:28.348Z,36.5
2018-11-22T01:14:17.845Z,36.5
2018-11-22T01:15:08.452Z,36.5
2018-11-22T01:15:59.055Z,36.5
2018-11-22T01:16:49.232Z,36.5
2018-11-22T01:17:38.605Z,36.5
2018-11-22T01:18:28.155Z,36.5
2018-11-22T01:19:17.702Z,36.4
2018-11-22T01:20:08.340Z,36.4
2018-11-22T01:20:58.857Z,36.4
2018-11-22T01:21:48.649Z,36.4
2018-11-22T01:22:39.091Z,36.4
2018-11-22T01:23:28.409Z,36.4
2018-11-22T01:24:18.627Z,36.4
2018-11-22T01:25:08.576Z,36.4
2018-11-22T01:25:59.249Z,36.4
2018-11-22T01:26:49.434Z,36.4
2018-11-22T01:27:39.046Z,36.4
2018-11-22T01:28:29.118Z,36.4
2018-11-22T01:29:19.453Z,36.4
2018-11-22T01:30:09.556Z,36.4
2018-11-22T01:30:58.977Z,36.3
2018-11-22T01:31:48.926Z,36.4
2018-11-22T01:32:39.699Z,36.3
2018-11-22T01:33:29.251Z,36.3
2018-11-22T01:34:18.946Z,36.3
2018-11-22T01:35:09.401Z,36.3
2018-11-22T01:36:00.451Z,36.3
2018-11-22T01:36:50.168Z,36.3
2018-11-22T01:37:40.023Z,36.3
2018-11-22T01:38:30.093Z,36.3
2018-11-22T01:39:19.568Z,36.3
2018-11-22T01:40:08.958Z,36.3
2018-11-22T01:41:00.902Z,36.3
2018-11-22T01:41:50.858Z,36.3
2018-11-22T01:42:40.354Z,36.2
2018-11-22T01:43:30.705Z,36.2
2018-11-22T01:44:20.251Z,36.2
2018-11-22T01:45:10.293Z,36.2
2018-11-22T01:46:00.034Z,36.2
2018-11-22T01:46:50.820Z,36.2
2018-11-22T01:47:40.772Z,36.2
2018-11-22T01:48:30.550Z,36.2
2018-11-22T01:49:20.855Z,36.1
2018-11-22T01:50:10.376Z,36.1
2018-11-22T01:51:00.475Z,36.1
2018-11-22T01:51:51.097Z,36.1
2018-11-22T01:52:40.620Z,36.1
2018-11-22T01:53:30.835Z,36.1
2018-11-22T01:54:21.491Z,36.1
2018-11-22T01:55:11.013Z,36.1
2018-11-22T01:56:01.594Z,36.1
2018-11-22T01:56:51.167Z,36.1
2018-11-22T01:57:41.280Z,36.1
2018-11-22T01:58:30.632Z,36.1
2018-11-22T01:59:22.112Z,36.1
2018-11-22T02:00:11.347Z,36
2018-11-22T02:01:02.257Z,36
2018-11-22T02:01:51.547Z,36
2018-11-22T02:02:42.085Z,36
2018-11-22T02:03:31.926Z,36
2018-11-22T02:04:22.147Z,36
2018-11-22T02:05:10.880Z,36
2018-11-22T02:06:01.124Z,36
2018-11-22T02:06:51.819Z,36
2018-11-22T02:07:42.407Z,35.9
2018-11-22T02:08:32.764Z,35.9
2018-11-22T02:09:22.249Z,35.9
2018-11-22T02:10:11.081Z,35.9
2018-11-22T02:11:01.687Z,35.9
2018-11-22T02:11:52.440Z,35.9
2018-11-22T02:12:42.779Z,35.9
2018-11-22T02:13:32.282Z,35.9
2018-11-22T02:14:22.239Z,35.9
2018-11-22T02:15:11.783Z,35.9
2018-11-22T02:16:01.869Z,35.9
2018-11-22T02:16:52.024Z,35.9
2018-11-22T02:17:42.901Z,35.9
2018-11-22T02:18:33.073Z,35.8
2018-11-22T02:19:22.245Z,35.8
2018-11-22T02:20:12.446Z,35.8
2018-11-22T02:21:03.366Z,35.8
2018-11-22T02:21:51.788Z,35.8
2018-11-22T02:22:43.299Z,35.8
2018-11-22T02:23:33.403Z,35.8
2018-11-22T02:24:22.473Z,35.8
2018-11-22T02:25:12.793Z,35.8
2018-11-22T02:26:02.905Z,35.8
2018-11-22T02:26:52.998Z,35.8
2018-11-22T02:27:43.308Z,35.8
2018-11-22T02:28:33.542Z,35.8
2018-11-22T02:29:23.165Z,35.8
2018-11-22T02:30:13.430Z,35.8
2018-11-22T02:31:03.502Z,35.8
2018-11-22T02:31:54.017Z,35.8
2018-11-22T02:32:44.233Z,35.8
2018-11-22T02:33:34.206Z,35.8
2018-11-22T02:34:23.255Z,35.7
2018-11-22T02:35:12.980Z,35.7
2018-11-22T02:36:03.832Z,35.7
2018-11-22T02:36:54.514Z,35.7
2018-11-22T02:37:43.737Z,35.7
2018-11-22T02:38:34.033Z,35.7
2018-11-22T02:39:24.157Z,35.7
2018-11-22T02:40:12.937Z,35.7
2018-11-22T02:41:04.266Z,35.7
2018-11-22T02:41:53.780Z,35.6
2018-11-22T02:42:44.334Z,35.6
2018-11-22T02:43:34.042Z,35.6
2018-11-22T02:44:24.699Z,35.6
2018-11-22T02:45:14.264Z,35.6
2018-11-22T02:46:04.356Z,35.6
2018-11-22T02:46:54.111Z,35.6
2018-11-22T02:47:43.474Z,35.6
2018-11-22T02:48:34.670Z,35.6
2018-11-22T02:49:24.306Z,35.6
2018-11-22T02:50:14.919Z,35.6
2018-11-22T02:51:04.904Z,35.6
2018-11-22T02:51:55.259Z,35.6
2018-11-22T02:52:44.824Z,35.6
2018-11-22T02:53:35.521Z,35.6
2018-11-22T02:54:25.408Z,35.6
2018-11-22T02:55:15.253Z,35.5
2018-11-22T02:56:04.931Z,35.5
2018-11-22T02:56:54.829Z,35.6
2018-11-22T02:57:45.936Z,35.5
2018-11-22T02:58:35.744Z,35.5
2018-11-22T02:59:25.723Z,35.5
2018-11-22T03:00:15.794Z,35.5
2018-11-22T03:01:05.013Z,35.5
2018-11-22T03:01:55.928Z,35.5
2018-11-22T03:02:45.431Z,35.4
2018-11-22T03:03:35.748Z,35.4
2018-11-22T03:04:25.246Z,35.4
2018-11-22T03:05:16.498Z,35.4
2018-11-22T03:06:05.615Z,35.4
2018-11-22T03:06:55.958Z,35.4
2018-11-22T03:07:46.637Z,35.4
2018-11-22T03:08:36.127Z,35.4
2018-11-22T03:09:26.612Z,35.4
2018-11-22T03:10:15.162Z,35.4
2018-11-22T03:11:07.385Z,35.4
2018-11-22T03:11:56.402Z,35.4
2018-11-22T03:12:48.808Z,35.4
2018-11-22T03:13:35.800Z,35.4
2018-11-22T03:14:26.590Z,35.4
2018-11-22T03:15:16.585Z,35.4
2018-11-22T03:16:07.289Z,35.3
2018-11-22T03:16:56.962Z,35.3
2018-11-22T03:17:45.720Z,35.3
2018-11-22T03:18:36.334Z,35.3
2018-11-22T03:19:27.968Z,35.3
2018-11-22T03:20:17.427Z,35.3
2018-11-22T03:21:07.047Z,35.3
2018-11-22T03:21:55.917Z,35.3
2018-11-22T03:22:47.619Z,35.3
2018-11-22T03:23:37.232Z,35.3
2018-11-22T03:24:27.697Z,35.3
2018-11-22T03:25:17.015Z,35.3
2018-11-22T03:26:08.256Z,35.3
2018-11-22T03:26:57.654Z,35.3
2018-11-22T03:27:47.744Z,35.3
2018-11-22T03:28:36.979Z,35.3
2018-11-22T03:29:28.161Z,35.3
2018-11-22T03:30:17.979Z,35.3
2018-11-22T03:31:08.072Z,35.3
2018-11-22T03:31:57.734Z,35.3
2018-11-22T03:32:48.419Z,35.2
2018-11-22T03:33:37.158Z,35.2
2018-11-22T03:34:28.251Z,35.2
2018-11-22T03:35:18.086Z,35.2
2018-11-22T03:36:07.287Z,35.2
2018-11-22T03:36:57.386Z,35.2
2018-11-22T03:37:47.134Z,35.2
2018-11-22T03:38:37.981Z,35.1
2018-11-22T03:39:28.446Z,35.2
2018-11-22T03:40:17.883Z,35.2
2018-11-22T03:41:08.168Z,35.2
2018-11-22T03:41:58.548Z,35.2
2018-11-22T03:42:48.277Z,35.1
2018-11-22T03:43:38.139Z,35.1
2018-11-22T03:44:29.148Z,35.1
2018-11-22T03:45:17.730Z,35.1
2018-11-22T03:46:08.773Z,35.1
2018-11-22T03:46:59.613Z,35.1
2018-11-22T03:47:48.558Z,35.1
2018-11-22T03:48:39.188Z,35.1
2018-11-22T03:49:28.740Z,35.1
2018-11-22T03:50:19.345Z,35.1
2018-11-22T03:51:08.658Z,35.1
2018-11-22T03:51:59.956Z,35.1
2018-11-22T03:52:49.760Z,35.1
2018-11-22T03:53:38.875Z,35.1
2018-11-22T03:54:29.580Z,35.1
2018-11-22T03:55:20.232Z,35
2018-11-22T03:56:09.852Z,35.1
2018-11-22T03:56:58.902Z,35
2018-11-22T03:57:49.877Z,35
2018-11-22T03:58:39.888Z,35
2018-11-22T03:59:29.635Z,35
2018-11-22T04:00:19.952Z,35
2018-11-22T04:01:09.809Z,35
2018-11-22T04:02:00.714Z,34.9
2018-11-22T04:02:50.744Z,35
2018-11-22T04:03:39.566Z,35
2018-11-22T04:04:29.989Z,34.9
2018-11-22T04:05:19.868Z,34.9
2018-11-22T04:06:10.621Z,34.9
2018-11-22T04:07:00.221Z,34.9
2018-11-22T04:07:50.017Z,34.9
2018-11-22T04:08:40.015Z,34.9
2018-11-22T04:09:30.339Z,34.9
2018-11-22T04:10:20.259Z,34.9
2018-11-22T04:11:10.221Z,34.9
2018-11-22T04:12:01.095Z,34.9
2018-11-22T04:12:50.214Z,34.9
2018-11-22T04:13:41.199Z,34.9
2018-11-22T04:14:30.814Z,34.9
2018-11-22T04:15:21.017Z,34.9
2018-11-22T04:16:11.904Z,34.9
2018-11-22T04:17:01.521Z,34.9
2018-11-22T04:17:51.771Z,34.9
2018-11-22T04:18:40.499Z,34.9
2018-11-22T04:19:31.053Z,34.9
2018-11-22T04:20:20.276Z,34.9
2018-11-22T04:21:11.361Z,34.9
2018-11-22T04:22:00.944Z,34.9
2018-11-22T04:22:50.868Z,34.9
2018-11-22T04:23:41.123Z,34.8
2018-11-22T04:24:30.918Z,34.8
2018-11-22T04:25:21.958Z,34.8
2018-11-22T04:26:10.996Z,34.8
2018-11-22T04:27:02.664Z,34.8
2018-11-22T04:27:51.958Z,34.8
2018-11-22T04:28:41.185Z,34.8
2018-11-22T04:29:31.731Z,34.8
2018-11-22T04:30:22.393Z,34.8
2018-11-22T04:31:11.446Z,34.8
2018-11-22T04:32:01.098Z,34.8
2018-11-22T04:32:52.294Z,34.8
2018-11-22T04:33:42.350Z,34.8
2018-11-22T04:34:31.885Z,34.8
2018-11-22T04:35:21.706Z,34.8
2018-11-22T04:36:12.626Z,34.8
2018-11-22T04:37:02.840Z,34.8
2018-11-22T04:54:21.718Z,34.6
2018-11-22T04:55:11.257Z,34.6
2018-11-22T04:56:01.693Z,34.6
2018-11-22T04:56:51.663Z,34.6
2018-11-22T04:57:41.745Z,34.6
2018-11-22T04:58:32.076Z,34.6
2018-11-22T04:59:21.758Z,34.6
2018-11-22T05:00:12.089Z,34.6
2018-11-22T05:01:01.988Z,34.6
2018-11-22T05:01:50.615Z,34.6
2018-11-22T05:02:42.811Z,34.6
2018-11-22T05:03:31.261Z,34.6
2018-11-22T05:04:21.768Z,34.6
2018-11-22T05:05:12.194Z,34.6
2018-11-22T05:06:02.815Z,34.6
2018-11-22T05:06:51.558Z,34.6
2018-11-22T05:07:42.136Z,34.6
2018-11-22T05:08:32.143Z,34.6
2018-11-22T05:09:22.306Z,34.6
2018-11-22T05:10:11.846Z,34.6
2018-11-22T05:11:02.660Z,34.6
2018-11-22T05:11:51.837Z,34.6
2018-11-22T05:12:42.196Z,34.6
2018-11-22T05:13:33.120Z,34.6
2018-11-22T05:14:22.110Z,34.6
2018-11-22T05:15:11.965Z,34.6
2018-11-22T05:16:02.240Z,34.6
2018-11-22T05:16:52.242Z,34.6
2018-11-22T05:17:42.080Z,34.6
2018-11-22T05:18:32.105Z,34.6
2018-11-22T05:19:22.635Z,34.6
2018-11-22T05:20:12.887Z,34.6
2018-11-22T05:21:03.090Z,34.6
2018-11-22T05:21:52.900Z,34.6
2018-11-22T05:22:42.947Z,34.6
2018-11-22T05:23:33.877Z,34.5
2018-11-22T05:24:23.611Z,34.6
2018-11-22T05:25:12.532Z,34.6
2018-11-22T05:26:04.223Z,34.6
2018-11-22T05:26:53.504Z,34.5
2018-11-22T05:27:43.339Z,34.6
2018-11-22T05:28:32.672Z,34.5
2018-11-22T05:29:23.333Z,34.5
2018-11-22T05:30:13.999Z,34.5
2018-11-22T05:31:03.871Z,34.5
2018-11-22T05:31:54.586Z,34.5
2018-11-22T05:32:43.423Z,34.5
2018-11-22T05:33:33.958Z,34.5
2018-11-22T05:34:23.557Z,34.5
2018-11-22T05:35:14.384Z,34.5
2018-11-22T05:36:04.696Z,34.5
2018-11-22T05:36:53.651Z,34.5
2018-11-22T05:37:43.802Z,34.4
2018-11-22T05:38:34.534Z,34.5
2018-11-22T05:39:25.128Z,34.4
2018-11-22T05:40:14.439Z,34.4
2018-11-22T05:41:04.449Z,34.4
2018-11-22T05:41:54.736Z,34.4
2018-11-22T05:42:44.496Z,34.4
2018-11-22T05:43:34.373Z,34.4
2018-11-22T05:44:25.458Z,34.4
2018-11-22T05:45:15.051Z,34.4
2018-11-22T05:46:05.316Z,34.4
2018-11-22T05:46:54.536Z,34.4
2018-11-22T05:47:44.803Z,34.4
2018-11-22T05:48:34.928Z,34.4
2018-11-22T05:49:25.392Z,34.4
2018-11-22T05:50:15.033Z,34.4
2018-11-22T05:51:05.411Z,34.4
2018-11-22T05:51:54.130Z,34.4
2018-11-22T05:52:45.505Z,34.4
2018-11-22T05:53:35.066Z,34.4
2018-11-22T05:54:25.380Z,34.4
2018-11-22T05:55:15.604Z,34.4
2018-11-22T05:56:04.696Z,34.4
2018-11-22T05:56:55.787Z,34.4
2018-11-22T05:57:45.804Z,34.4
2018-11-22T05:58:36.177Z,34.4
2018-11-22T05:59:25.177Z,34.4
2018-11-22T06:00:15.705Z,34.4
2018-11-22T06:01:05.247Z,34.3
2018-11-22T06:01:56.339Z,34.3
2018-11-22T06:02:46.469Z,34.3
2018-11-22T06:03:35.267Z,34.4
2018-11-22T06:04:25.989Z,34.3
2018-11-22T06:05:16.257Z,34.4
2018-11-22T06:06:05.896Z,34.3
2018-11-22T06:06:56.289Z,34.3
2018-11-22T06:07:45.325Z,34.3
2018-11-22T06:08:36.206Z,34.3
2018-11-22T06:09:26.629Z,34.3
2018-11-22T06:10:16.899Z,34.3
2018-11-22T06:11:06.449Z,34.3
2018-11-22T06:11:57.196Z,34.3
2018-11-22T06:12:46.374Z,34.3
2018-11-22T06:13:36.674Z,34.3
2018-11-22T06:14:27.041Z,34.3
2018-11-22T06:15:15.639Z,34.3
2018-11-22T06:16:07.084Z,34.3
2018-11-22T06:16:57.128Z,34.3
2018-11-22T06:17:46.967Z,34.3
2018-11-22T06:18:36.816Z,34.3
2018-11-22T06:19:27.045Z,34.3
2018-11-22T06:20:17.411Z,34.3
2018-11-22T06:21:07.888Z,34.3
2018-11-22T06:21:58.019Z,34.3
2018-11-22T06:22:47.030Z,34.3
2018-11-22T06:23:37.350Z,34.3
2018-11-22T06:24:27.728Z,34.2
2018-11-22T06:25:17.033Z,34.3
2018-11-22T06:26:07.330Z,34.2
2018-11-22T06:26:58.175Z,34.2
2018-11-22T06:27:48.233Z,34.2
2018-11-22T06:28:37.533Z,34.2
2018-11-22T06:29:27.986Z,34.2
2018-11-22T06:30:17.225Z,34.2
2018-11-22T06:31:10.531Z,34.2
2018-11-22T06:31:58.577Z,34.2
2018-11-22T06:32:47.975Z,34.1
2018-11-22T06:33:37.569Z,34.1
2018-11-22T06:34:27.607Z,34
2018-11-22T06:35:17.969Z,33.9
2018-11-22T06:36:08.639Z,33.8
2018-11-22T06:36:58.335Z,33.8
2018-11-22T06:37:47.609Z,33.6
2018-11-22T06:38:38.233Z,33.4
2018-11-22T06:39:28.484Z,33.3
2018-11-22T06:40:18.576Z,33.1
2018-11-22T06:41:09.024Z,32.9
2018-11-22T06:41:58.342Z,32.8
2018-11-22T06:42:48.464Z,32.8
2018-11-22T06:43:39.016Z,32.6
2018-11-22T06:44:28.489Z,32.6
2018-11-22T06:45:18.294Z,32.5
2018-11-22T06:46:09.611Z,32.4
2018-11-22T06:46:59.516Z,32.4
2018-11-22T06:47:49.123Z,32.4
2018-11-22T06:48:38.418Z,32.3
2018-11-22T06:49:28.894Z,32.3
2018-11-22T06:50:20.074Z,32.3
2018-11-22T06:51:09.703Z,32.3
2018-11-22T06:51:59.136Z,32.2
2018-11-22T06:52:49.721Z,32.2
2018-11-22T06:53:38.963Z,32.1
2018-11-22T06:54:29.191Z,32.1
2018-11-22T06:55:19.789Z,32
2018-11-22T06:56:10.231Z,31.9
2018-11-22T06:56:59.748Z,31.8
2018-11-22T06:57:49.423Z,31.8
2018-11-22T06:58:40.258Z,31.8
2018-11-22T06:59:29.971Z,31.7
2018-11-22T07:00:20.046Z,31.7
2018-11-22T07:01:09.463Z,31.6
2018-11-22T07:02:00.523Z,31.4
2018-11-22T07:02:49.838Z,31.1
2018-11-22T07:03:40.303Z,30.6
2018-11-22T07:04:30.488Z,29.9
2018-11-22T07:05:20.278Z,29.3
2018-11-22T07:06:09.818Z,28.5
2018-11-22T07:07:01.048Z,27.9
2018-11-22T07:07:50.222Z,27.3
2018-11-22T07:08:40.727Z,26.8
2018-11-22T07:09:29.804Z,26.3
2018-11-22T07:10:20.608Z,25.9
2018-11-22T07:11:11.022Z,25.6
2018-11-22T07:12:01.102Z,25.4
2018-11-22T07:12:50.952Z,25.1
2018-11-22T07:13:41.125Z,24.9
2018-11-22T07:14:31.287Z,24.8
2018-11-22T07:15:20.527Z,24.6
2018-11-22T07:16:10.969Z,24.4
2018-11-22T07:17:01.349Z,24.3
2018-11-22T07:17:51.543Z,24.1
2018-11-22T07:18:41.209Z,24
2018-11-22T07:19:31.031Z,23.9
2018-11-22T07:20:21.279Z,23.8
2018-11-22T07:21:11.379Z,23.7
2018-11-22T07:22:01.490Z,23.6
2018-11-22T07:22:51.772Z,23.4
2018-11-22T07:23:41.552Z,23.4
2018-11-22T07:24:31.602Z,23.3
2018-11-22T07:25:22.189Z,23.2
2018-11-22T07:26:11.684Z,23.1
2018-11-22T07:27:01.730Z,23.1
2018-11-22T07:27:51.931Z,23
2018-11-22T07:28:42.309Z,22.9
2018-11-22T07:29:32.204Z,22.9
2018-11-22T07:30:21.699Z,22.8
2018-11-22T07:31:12.036Z,22.8
2018-11-22T07:32:02.319Z,22.7
2018-11-22T07:32:52.019Z,22.6
2018-11-22T07:33:42.834Z,22.6
2018-11-22T07:34:31.715Z,22.6
2018-11-22T07:35:22.683Z,22.5
2018-11-22T07:36:12.451Z,22.5
2018-11-22T07:37:02.159Z,22.4
2018-11-22T07:37:53.171Z,22.4
2018-11-22T07:38:43.223Z,22.4
2018-11-22T07:39:32.443Z,22.3
2018-11-22T07:40:22.800Z,22.3
2018-11-22T07:41:11.962Z,22.3
2018-11-22T07:42:02.811Z,22.2
2018-11-22T07:42:55.165Z,22.2
2018-11-22T07:43:42.633Z,22.2
2018-11-22T07:44:33.385Z,22.1
2018-11-22T07:45:23.905Z,22.1
2018-11-22T07:46:13.480Z,22.1
2018-11-22T07:47:03.168Z,22
2018-11-22T07:47:53.334Z,22
2018-11-22T07:48:43.815Z,22
2018-11-22T07:49:33.431Z,21.9
2018-11-22T07:50:23.557Z,21.9
2018-11-22T07:51:14.302Z,21.9
2018-11-22T07:52:03.265Z,21.9
2018-11-22T07:53:00.972Z,21.9
2018-11-22T07:53:43.470Z,21.9
2018-11-22T07:54:33.370Z,21.9
2018-11-22T07:55:23.630Z,21.9
2018-11-22T07:56:13.872Z,21.8
2018-11-22T07:57:03.924Z,21.8
2018-11-22T07:57:53.959Z,21.8
2018-11-22T07:58:43.564Z,21.8
2018-11-22T07:59:33.797Z,21.8
2018-11-22T08:00:24.689Z,21.8
2018-11-22T08:01:13.972Z,21.8
2018-11-22T08:02:04.156Z,21.8
2018-11-22T08:02:54.519Z,21.8
2018-11-22T08:03:44.194Z,21.8
2018-11-22T08:04:34.096Z,21.8
2018-11-22T08:05:24.152Z,21.7
2018-11-22T08:06:13.606Z,21.7
2018-11-22T08:07:04.511Z,21.7
2018-11-22T08:07:54.839Z,21.7
2018-11-22T08:08:45.523Z,21.7
2018-11-22T08:09:33.849Z,21.6
2018-11-22T08:10:24.173Z,21.6
2018-11-22T08:11:15.379Z,21.6
2018-11-22T08:12:05.720Z,21.6
2018-11-22T08:12:55.946Z,21.6
2018-11-22T08:13:45.874Z,21.6
2018-11-22T08:14:35.483Z,21.6
2018-11-22T08:15:25.032Z,21.6
2018-11-22T08:16:15.486Z,21.6
2018-11-22T08:17:05.658Z,21.5
2018-11-22T08:17:54.798Z,21.6
2018-11-22T08:18:45.385Z,21.6
2018-11-22T08:19:34.546Z,21.5
2018-11-22T08:20:24.975Z,21.5
2018-11-22T08:21:15.053Z,21.5
2018-11-22T08:22:06.022Z,21.5
2018-11-22T08:22:56.083Z,21.5
2018-11-22T08:23:46.226Z,21.5
2018-11-22T08:24:36.375Z,21.4
2018-11-22T08:25:26.728Z,21.4
2018-11-22T08:26:16.565Z,21.4
2018-11-22T08:27:05.080Z,21.4
2018-11-22T08:27:56.182Z,21.4
2018-11-22T08:28:46.092Z,21.4
2018-11-22T08:29:35.940Z,21.4
2018-11-22T08:30:25.973Z,21.4
2018-11-22T08:31:15.835Z,21.4
2018-11-22T08:32:06.265Z,21.4
2018-11-22T08:32:56.782Z,21.4
2018-11-22T08:33:46.985Z,21.4
2018-11-22T08:34:37.144Z,21.4
2018-11-22T08:35:26.634Z,21.4
2018-11-22T08:36:16.619Z,21.4
2018-11-22T08:37:05.929Z,21.3
2018-11-22T08:42:46.918Z,33.7
2018-11-22T08:43:37.048Z,33
2018-11-22T08:44:26.261Z,31.2
2018-11-22T08:45:17.321Z,29.4
2018-11-22T08:46:07.742Z,28.6
2018-11-22T08:46:56.923Z,27.9
2018-11-22T08:47:46.723Z,27.6
2018-11-22T08:48:36.051Z,27.3
2018-11-22T08:49:27.081Z,27
2018-11-22T08:50:17.446Z,27
2018-11-22T08:51:07.226Z,31.1
2018-11-22T08:51:57.228Z,32.1
2018-11-22T08:52:46.868Z,34.6
2018-11-22T09:08:51.086Z,37.8
2018-11-22T09:09:41.091Z,37.8
2018-11-22T09:10:31.919Z,37.8
2018-11-22T09:11:21.249Z,37.8
2018-11-22T09:12:10.981Z,37.8
2018-11-22T09:13:00.777Z,37.8
2018-11-22T09:13:51.689Z,37.8
2018-11-22T09:14:41.420Z,37.8
2018-11-22T09:15:35.854Z,37.9
2018-11-22T09:16:21.260Z,37.9
2018-11-22T09:17:11.061Z,38.1
2018-11-22T09:18:01.664Z,38.1
2018-11-22T09:18:51.761Z,38.3
2018-11-22T09:19:42.051Z,38.3
2018-11-22T09:20:31.002Z,38.4
2018-11-22T09:21:22.136Z,38.4
2018-11-22T09:22:12.201Z,38.6
2018-11-22T09:23:01.241Z,38.6
2018-11-22T09:23:51.526Z,38.3
2018-11-22T09:24:41.839Z,37.6
2018-11-22T09:25:31.625Z,37.3
2018-11-22T09:26:21.678Z,37.1
2018-11-22T09:27:12.263Z,36.8
2018-11-22T09:28:01.513Z,36.5
2018-11-22T09:28:52.617Z,36.1
2018-11-22T09:29:44.203Z,35.8
2018-11-22T09:30:32.798Z,35.4
2018-11-22T09:31:22.281Z,35.3
2018-11-22T09:32:12.080Z,35.2
2018-11-22T09:33:02.483Z,35.1
2018-11-22T09:33:51.286Z,35.1
2018-11-22T09:34:42.545Z,35.1
2018-11-22T09:35:32.895Z,35.1
2018-11-22T09:36:21.842Z,35.1
2018-11-22T09:37:12.977Z,35
2018-11-22T09:38:02.203Z,35
2018-11-22T09:38:52.820Z,34.9
2018-11-22T09:39:42.597Z,34.9
2018-11-22T09:40:32.999Z,34.9
2018-11-22T09:41:22.531Z,34.9
2018-11-22T09:42:13.812Z,34.8
2018-11-22T09:43:02.615Z,34.8
2018-11-22T09:43:52.894Z,34.8
2018-11-22T09:44:43.504Z,34.8
2018-11-22T09:45:33.564Z,34.7
2018-11-22T09:46:24.396Z,34.8
2018-11-22T09:47:13.142Z,34.8
2018-11-22T09:48:03.502Z,34.8
2018-11-22T09:48:54.535Z,34.8
2018-11-22T09:49:43.659Z,34.8
2018-11-22T09:50:34.224Z,34.8
2018-11-22T09:51:24.563Z,34.8
2018-11-22T09:52:14.573Z,34.8
2018-11-22T09:53:04.643Z,34.9
2018-11-22T09:53:54.147Z,34.9
2018-11-22T09:54:44.810Z,34.9
2018-11-22T09:55:34.315Z,34.9
2018-11-22T09:56:24.926Z,34.9
2018-11-22T09:57:14.691Z,34.9
2018-11-22T09:58:05.578Z,34.9
2018-11-22T09:58:55.735Z,34.9
2018-11-22T09:59:44.629Z,34.8
2018-11-22T10:00:34.906Z,34.8
2018-11-22T10:01:25.238Z,34.8
2018-11-22T10:02:14.478Z,34.8
2018-11-22T10:03:06.103Z,34.8
2018-11-22T10:03:54.353Z,34.7
2018-11-22T10:04:46.243Z,34.7
2018-11-22T10:05:36.098Z,34.7
2018-11-22T10:06:25.053Z,34.6
2018-11-22T10:07:15.376Z,34.6
2018-11-22T10:08:05.160Z,34.6
2018-11-22T10:08:55.465Z,34.6
2018-11-22T10:09:45.504Z,34.6
2018-11-22T10:10:35.072Z,34.6
2018-11-22T10:11:25.403Z,34.6
2018-11-22T10:12:15.342Z,34.6
2018-11-22T10:13:04.963Z,34.5
2018-11-22T10:13:55.280Z,34.5
2018-11-22T10:14:45.638Z,34.5
2018-11-22T10:15:35.100Z,34.4
2018-11-22T10:16:25.220Z,34.4
2018-11-22T10:17:16.830Z,34.4
2018-11-22T10:18:05.890Z,34.3
2018-11-22T10:18:56.177Z,34.3
2018-11-22T10:19:44.085Z,34.3
2018-11-22T10:20:35.734Z,34.3
2018-11-22T10:21:26.390Z,34.3
2018-11-22T10:22:15.913Z,34.2
2018-11-22T10:23:05.982Z,34.2
2018-11-22T10:23:57.325Z,34.1
2018-11-22T10:24:45.757Z,34.1
2018-11-22T10:25:36.062Z,34.1
2018-11-22T10:26:25.591Z,34.1
2018-11-22T10:27:16.277Z,34.1
2018-11-22T10:28:06.261Z,34.1
2018-11-22T10:28:56.632Z,34.1
2018-11-22T10:29:45.891Z,34.1
2018-11-22T10:30:35.977Z,34.1
2018-11-22T10:31:26.181Z,34
2018-11-22T10:32:15.613Z,34
2018-11-22T10:33:06.411Z,33.9
2018-11-22T10:33:55.966Z,33.9
2018-11-22T10:34:47.324Z,33.9
2018-11-22T10:35:36.314Z,33.9
2018-11-22T10:36:26.299Z,33.9
2018-11-22T10:37:16.651Z,33.9
2018-11-22T10:38:08.239Z,33.9
2018-11-22T10:38:56.610Z,33.8
2018-11-22T10:39:47.041Z,33.9
2018-11-22T10:40:37.408Z,33.9
2018-11-22T10:41:27.166Z,33.8
2018-11-22T10:42:17.631Z,33.8
2018-11-22T10:43:57.066Z,33.8
2018-11-22T10:44:47.747Z,33.8
2018-11-22T10:45:37.180Z,33.8
2018-11-22T10:46:27.793Z,33.8
2018-11-22T10:47:17.625Z,33.8
2018-11-22T10:48:07.093Z,33.8
2018-11-22T10:48:57.428Z,33.8
2018-11-22T10:49:54.986Z,33.8
2018-11-22T10:50:37.548Z,33.8
2018-11-22T10:51:28.153Z,33.8
2018-11-22T10:52:18.271Z,33.8
2018-11-22T10:53:07.730Z,33.7
2018-11-22T10:53:58.866Z,33.7
2018-11-22T10:54:47.815Z,33.7
2018-11-22T10:55:38.442Z,33.6
2018-11-22T10:56:28.217Z,33.6
2018-11-22T10:57:18.377Z,33.6
2018-11-22T10:58:08.352Z,33.6
2018-11-22T10:58:57.615Z,33.5
2018-11-22T10:59:47.604Z,33.5
2018-11-22T11:00:38.337Z,33.4
2018-11-22T11:01:28.835Z,33.4
2018-11-22T11:02:19.167Z,33.3
2018-11-22T11:03:08.942Z,33.3
2018-11-22T11:03:58.745Z,33.2
2018-11-22T11:04:49.057Z,33.2
2018-11-22T11:05:39.217Z,33.1
2018-11-22T11:06:28.955Z,33.1
2018-11-22T11:07:19.705Z,33
2018-11-22T11:08:09.830Z,32.9
2018-11-22T11:08:59.647Z,32.9
2018-11-22T11:09:48.372Z,32.9
2018-11-22T11:10:38.420Z,32.8
2018-11-22T11:11:29.829Z,32.8
2018-11-22T11:12:25.362Z,32.8
2018-11-22T11:13:10.140Z,32.8
2018-11-22T11:13:59.149Z,32.7
2018-11-22T11:14:49.539Z,32.7
2018-11-22T11:15:39.879Z,32.7
2018-11-22T11:16:30.163Z,32.6
2018-11-22T11:17:19.121Z,32.6
2018-11-22T11:18:09.455Z,32.6
2018-11-22T11:19:00.099Z,32.5
2018-11-22T11:19:50.171Z,32.5
2018-11-22T11:20:39.369Z,32.4
2018-11-22T11:21:30.259Z,32.4
2018-11-22T11:22:20.321Z,32.3
2018-11-22T11:23:09.521Z,32.3
2018-11-22T11:24:00.135Z,32.3
2018-11-22T11:24:49.831Z,32.2
2018-11-22T11:25:40.516Z,32.1
2018-11-22T11:26:30.174Z,32.1
2018-11-22T11:27:20.932Z,32.1
2018-11-22T11:28:10.693Z,32
2018-11-22T11:29:00.738Z,31.9
2018-11-22T11:29:51.103Z,31.9
2018-11-22T11:30:40.593Z,31.8
2018-11-22T11:31:30.870Z,31.8
2018-11-22T11:32:20.146Z,31.7
2018-11-22T11:33:11.583Z,31.6
2018-11-22T11:34:01.848Z,31.6
2018-11-22T11:34:50.385Z,31.6
2018-11-22T11:35:40.397Z,31.4
2018-11-22T11:36:31.317Z,31.4
2018-11-22T11:37:21.623Z,31.4
2018-11-22T11:38:11.655Z,31.3
2018-11-22T11:39:00.887Z,31.3
2018-11-22T11:39:50.672Z,31.2
2018-11-22T11:40:41.573Z,31.1
2018-11-22T11:41:31.410Z,31.1
2018-11-22T11:42:21.435Z,31.1
2018-11-22T11:43:10.665Z,31
2018-11-22T11:44:01.531Z,30.9
2018-11-22T11:44:50.824Z,30.9
2018-11-22T11:45:40.327Z,30.8
2018-11-22T11:46:31.213Z,30.8
2018-11-22T11:47:21.267Z,30.7
2018-11-22T11:48:10.804Z,30.6
2018-11-22T11:49:01.577Z,30.6
2018-11-22T11:49:51.909Z,30.5
2018-11-22T11:50:41.695Z,30.4
2018-11-22T11:51:31.797Z,30.4
2018-11-22T11:52:22.691Z,30.3
2018-11-22T11:53:12.160Z,30.1
2018-11-22T11:54:02.487Z,29.9
2018-11-22T11:54:53.082Z,29.7
2018-11-22T11:55:41.772Z,29.4
2018-11-22T11:56:31.628Z,29.3
2018-11-22T11:57:22.507Z,29.1
2018-11-22T11:58:12.785Z,28.9
2018-11-22T11:59:02.837Z,28.8
2018-11-22T11:59:53.167Z,28.7
2018-11-22T12:00:42.151Z,28.6
2018-11-22T12:01:32.222Z,28.4
2018-11-22T12:02:23.099Z,28.3
2018-11-22T12:03:12.816Z,28.3